Time;durP1;ratioP1;P1;durP2;ratioP2;P2;SDS_P1;SDS_P2;PMS_P1;PMS_P2;Temp;Humidity;BMP_temperature;BMP_pressure;BME280_temperature;BME280_humidity;BME280_pressure;Samples;Min_cycle;Max_cycle;Signal;HPM_P1;HPM_P2
2021/10/15 00:03:31;;;;;;;10.63;2.88;;;;;;;9.58;63.62;98440.59;5075594;28;20083;-78
2021/10/15 00:07:32;;;;;;;9.25;1.90;;;;;;;9.49;63.76;98435.81;5074714;28;20044;-82
2021/10/15 00:10:01;;;;;;;16.65;1.85;;;;;;;9.15;63.81;98385.13;5062017;28;20059;-85
2021/10/15 00:12:28;;;;;;;35.60;2.45;;;;;;;8.68;63.75;98337.97;5077736;28;20071;-85
2021/10/15 00:23:27;;;;;;;6.10;1.70;;;;;;;9.41;63.37;98452.88;4903302;28;20426;-84
2021/10/15 00:26:07;;;;;;;9.70;2.15;;;;;;;8.74;63.33;98362.13;5035538;28;20083;-86
2021/10/15 00:28:42;;;;;;;19.50;2.50;;;;;;;8.73;63.17;98367.84;5057299;28;20497;-86
2021/10/15 00:32:02;;;;;;;;;;;;;;;;;;;;;
2021/10/15 00:36:07;;;;;;;;;;;;;;;;;;;;;
2021/10/15 00:39:47;;;;;;;13.90;2.47;;;;;;;8.99;63.15;98417.31;5073842;28;20059;-80
2021/10/15 00:42:37;;;;;;;17.77;2.17;;;;;;;9.36;62.87;98477.50;5063848;28;20093;-85
2021/10/15 00:45:04;;;;;;;20.05;2.10;;;;;;;9.19;62.75;98470.69;5053506;28;20045;-87
2021/10/15 00:47:32;;;;;;;5.22;2.03;;;;;;;8.79;62.58;98374.84;5081489;28;20058;-84
2021/10/15 00:49:58;;;;;;;;;;;;;;;9.27;63.18;98479.31;5042109;28;20242;-84
2021/10/15 00:52:27;;;;;;;11.27;1.92;;;;;;;8.74;62.73;98430.25;5039736;28;20023;-83
2021/10/15 00:54:59;;;;;;;4.68;1.80;;;;;;;9.14;62.66;98472.72;5035621;28;20091;-84
2021/10/15 00:57:28;;;;;;;11.63;2.00;;;;;;;8.70;62.80;98398.44;5080533;28;20044;-83
2021/10/15 00:59:56;;;;;;;5.95;1.75;;;;;;;8.56;62.66;98407.34;5041373;28;20041;-83
2021/10/15 01:02:23;;;;;;;11.45;1.88;;;;;;;9.14;62.68;98492.59;5075800;28;20053;-81
2021/10/15 01:04:56;;;;;;;9.98;1.80;;;;;;;9.08;62.95;98518.34;5060460;28;20041;-86
2021/10/15 01:07:29;;;;;;;5.47;1.60;;;;;;;8.88;62.95;98484.00;5023339;28;20528;-84
2021/10/15 01:09:55;;;;;;;;;;;;;;;9.15;62.69;98523.41;5023735;28;20052;-84
2021/10/15 01:12:52;;;;;;;8.50;2.92;;;;;;;8.99;62.78;98493.66;5026828;28;20015;-85
2021/10/15 01:15:50;;;;;;;10.15;3.13;;;;;;;8.43;62.48;98433.38;5015299;28;20064;-84
2021/10/15 01:19:17;;;;;;;;;;;;;;;;;;;;;
2021/10/15 01:22:37;;;;;;;6.57;2.00;;;;;;;8.98;62.32;98541.13;4970551;28;20313;-81
2021/10/15 01:25:38;;;;;;;5.97;2.10;;;;;;;8.71;62.89;98517.22;4975894;28;20049;-86
2021/10/15 01:32:55;;;;;;;12.02;1.67;;;;;;;8.78;63.11;98566.75;4979259;28;20082;-85
2021/10/15 01:35:49;;;;;;;10.65;3.15;;;;;;;8.93;62.43;98561.06;4980002;28;20386;-86
2021/10/15 01:38:36;;;;;;;18.95;1.75;;;;;;;8.86;61.99;98519.72;5038195;28;20037;-84
2021/10/15 01:41:12;;;;;;;10.73;2.00;;;;;;;8.64;62.41;98529.31;5059580;28;20394;-84
2021/10/15 01:43:50;;;;;;;3.97;1.52;;;;;;;8.29;62.90;98503.28;5066141;28;20152;-84
2021/10/15 01:57:18;;;;;;;7.20;2.20;;;;;;;8.67;62.55;98585.13;5061967;28;20048;-85
2021/10/15 02:00:47;;;;;;;;;;;;;;;;;;;;;
2021/10/15 02:05:10;;;;;;;;;;;;;;;;;;;;;
2021/10/15 02:08:32;;;;;;;8.10;1.88;;;;;;;7.84;62.69;98490.72;4948683;28;20066;-88
2021/10/15 02:11:34;;;;;;;6.13;1.52;;;;;;;8.28;62.51;98567.03;4893192;28;20071;-84
2021/10/15 02:14:02;;;;;;;8.80;1.60;;;;;;;8.15;62.37;98555.72;4929964;29;20047;-81
2021/10/15 02:16:55;;;;;;;;;;;;;;;;;;;;;
2021/10/15 02:20:16;;;;;;;7.65;1.50;;;;;;;8.53;62.35;98608.75;4933819;29;20138;-83
2021/10/15 02:23:03;;;;;;;13.10;1.50;;;;;;;7.83;62.39;98513.59;5011702;28;20052;-85
2021/10/15 02:25:35;;;;;;;5.43;1.23;;;;;;;8.45;62.46;98624.56;4996454;28;20049;-85
2021/10/15 02:28:22;;;;;;;;;;;;;;;;;;;;;
2021/10/15 02:30:56;;;;;;;3.97;1.30;;;;;;;8.08;62.70;98579.78;5028485;28;20041;-85
2021/10/15 02:33:25;;;;;;;4.20;1.55;;;;;;;7.74;62.94;98550.72;5052941;28;20060;-83
2021/10/15 02:35:51;;;;;;;6.85;1.70;;;;;;;7.71;62.70;98549.38;5039500;28;20104;-79
2021/10/15 02:38:17;;;;;;;5.72;1.73;;;;;;;8.28;62.99;98622.31;5063640;28;20049;-80
2021/10/15 02:40:51;;;;;;;6.30;1.90;;;;;;;8.31;63.21;98639.97;5062002;28;20047;-82
2021/10/15 02:43:20;;;;;;;17.35;2.20;;;;;;;8.14;63.37;98619.44;5060374;28;20048;-85
2021/10/15 02:45:46;;;;;;;5.68;1.90;;;;;;;7.73;63.40;98552.63;5018192;28;20473;-86
2021/10/15 02:48:39;;;;;;;5.53;2.00;;;;;;;8.01;63.05;98596.44;5057695;28;20076;-87
2021/10/15 02:51:17;;;;;;;4.68;1.90;;;;;;;7.72;63.35;98561.06;5027220;28;20460;-87
2021/10/15 02:54:02;;;;;;;7.35;1.98;;;;;;;7.91;63.31;98586.47;5017810;28;20541;-87
2021/10/15 02:56:38;;;;;;;7.57;2.25;;;;;;;8.30;62.63;98622.03;5054015;28;20501;-85
2021/10/15 02:59:07;;;;;;;7.95;2.85;;;;;;;8.71;62.40;98667.94;5058689;28;20055;-82
2021/10/15 03:01:33;;;;;;;8.05;2.03;;;;;;;8.61;62.35;98674.31;4999424;28;20053;-81
2021/10/15 03:04:43;;;;;;;7.95;3.13;;;;;;;8.60;62.47;98680.03;5052390;28;20152;-81
2021/10/15 03:07:40;;;;;;;7.32;2.70;;;;;;;8.60;62.54;98680.03;4986838;28;20088;-82
2021/10/15 03:10:08;;;;;;;6.55;2.33;;;;;;;8.66;62.36;98687.03;5017991;28;20484;-81
2021/10/15 03:12:45;;;;;;;;;;;;;;;;;;;;;
2021/10/15 03:15:50;;;;;;;7.70;2.97;;;;;;;8.15;62.89;98631.16;5002621;28;20053;-83
2021/10/15 03:18:34;;;;;;;7.60;2.60;;;;;;;8.53;62.91;98702.16;5006425;28;20084;-85
2021/10/15 03:21:29;;;;;;;10.65;2.70;;;;;;;8.32;62.98;98680.56;5013262;28;20056;-84
2021/10/15 03:24:12;;;;;;;7.72;2.80;;;;;;;7.84;62.90;98580.53;4981389;28;20049;-85
2021/10/15 03:26:47;;;;;;;12.90;3.22;;;;;;;7.76;63.09;98578.44;5004984;28;20112;-85
2021/10/15 03:29:22;;;;;;;8.65;2.53;;;;;;;7.82;63.12;98577.28;4969093;28;20049;-84
2021/10/15 03:31:54;;;;;;;9.35;3.15;;;;;;;7.92;62.97;98618.03;4997562;28;20514;-83
2021/10/15 03:34:23;;;;;;;8.20;3.28;;;;;;;8.31;63.16;98681.66;5003406;28;20060;-86
2021/10/15 03:37:23;;;;;;;;;;;;;;;;;;;;;
2021/10/15 03:40:55;;;;;;;10.90;3.85;;;;;;;7.68;62.98;98603.53;5021292;28;20172;-80
2021/10/15 03:47:39;;;;;;;9.68;3.63;;;;;;;8.41;63.03;98742.56;4981139;28;20485;-87
2021/10/15 03:50:09;;;;;;;20.45;3.80;;;;;;;8.32;63.22;98732.31;5061232;28;20076;-82
2021/10/15 03:52:38;;;;;;;14.60;3.67;;;;;;;7.86;63.12;98651.81;5041960;28;20045;-82
2021/10/15 03:55:07;;;;;;;9.95;4.25;;;;;;;8.18;63.09;98721.25;5037043;28;20041;-84
2021/10/15 03:57:35;;;;;;;10.70;3.65;;;;;;;8.43;63.05;98756.72;5035396;28;20460;-82
2021/10/15 04:00:03;;;;;;;9.05;4.05;;;;;;;8.23;62.98;98734.00;5056067;28;20308;-81
2021/10/15 04:02:42;;;;;;;8.85;3.80;;;;;;;8.35;63.35;98769.88;5036524;28;20079;-83
2021/10/15 04:05:09;;;;;;;11.32;3.40;;;;;;;8.36;63.75;98762.50;5060098;28;20049;-86
2021/10/15 04:07:35;;;;;;;9.15;3.95;;;;;;;8.32;63.34;98766.88;5039685;28;20073;-86
2021/10/15 04:10:04;;;;;;;11.05;4.32;;;;;;;8.33;63.20;98763.06;5044049;28;20045;-86
2021/10/15 04:12:30;;;;;;;14.40;4.20;;;;;;;8.33;63.20;98772.06;5045160;28;20060;-81
2021/10/15 04:15:02;;;;;;;10.50;4.15;;;;;;;8.21;63.25;98756.09;5038940;28;20456;-81
2021/10/15 04:17:29;;;;;;;9.88;4.43;;;;;;;8.29;63.14;98781.91;5054884;28;20484;-81
2021/10/15 04:19:55;;;;;;;10.65;4.43;;;;;;;8.29;63.21;98767.47;5026260;28;20044;-80
2021/10/15 04:22:21;;;;;;;10.20;4.15;;;;;;;8.35;63.22;98785.38;5036402;28;20056;-80
2021/10/15 04:24:47;;;;;;;9.57;4.15;;;;;;;8.14;63.38;98769.19;5035784;28;20041;-82
2021/10/15 04:27:14;;;;;;;11.88;4.43;;;;;;;8.14;63.26;98766.47;5045119;28;20079;-79
2021/10/15 04:29:40;;;;;;;8.88;3.88;;;;;;;8.14;63.21;98771.13;5061509;28;20052;-79
2021/10/15 04:32:07;;;;;;;10.98;4.60;;;;;;;8.27;63.04;98797.69;5060758;28;20109;-81
2021/10/15 04:34:35;;;;;;;12.10;4.25;;;;;;;8.20;63.02;98819.81;5066261;28;20041;-82
2021/10/15 04:37:02;;;;;;;10.85;4.10;;;;;;;8.28;62.93;98812.13;5036477;28;20041;-81
2021/10/15 04:39:28;;;;;;;12.48;4.25;;;;;;;8.22;62.79;98814.91;5044735;28;20049;-81
2021/10/15 04:41:54;;;;;;;9.43;3.75;;;;;;;8.18;63.20;98819.28;5053248;28;20496;-81
2021/10/15 04:44:20;;;;;;;8.15;3.50;;;;;;;7.97;63.27;98790.56;5082439;28;20518;-81
2021/10/15 04:46:49;;;;;;;9.05;3.60;;;;;;;8.03;63.10;98803.88;5082453;28;20036;-82
2021/10/15 04:49:18;;;;;;;9.55;3.72;;;;;;;8.15;63.35;98830.72;5069172;28;20135;-82
2021/10/15 04:51:44;;;;;;;11.07;4.53;;;;;;;8.16;63.37;98829.63;5031871;28;20583;-81
2021/10/15 04:54:10;;;;;;;11.88;4.00;;;;;;;8.22;63.17;98835.88;5077802;28;20080;-81
2021/10/15 04:56:43;;;;;;;9.18;3.42;;;;;;;8.03;63.13;98803.88;5061282;28;20040;-86
2021/10/15 04:59:11;;;;;;;8.82;3.60;;;;;;;7.83;62.79;98774.06;5029250;28;20047;-86
2021/10/15 05:01:52;;;;;;;9.80;3.55;;;;;;;7.42;63.33;98735.09;5060191;28;20048;-86
2021/10/15 05:04:29;;;;;;;9.52;3.42;;;;;;;7.37;63.19;98733.22;4977013;28;20057;-84
2021/10/15 05:06:58;;;;;;;9.27;3.65;;;;;;;8.12;63.33;98855.81;4988811;28;20046;-78
2021/10/15 05:09:33;;;;;;;9.30;3.58;;;;;;;8.08;63.13;98843.88;4995630;28;20458;-78
2021/10/15 05:12:01;;;;;;;12.25;3.88;;;;;;;8.06;63.26;98844.13;4999864;28;20060;-79
2021/10/15 05:14:27;;;;;;;9.25;3.70;;;;;;;8.08;63.54;98847.38;4985225;28;20507;-79
2021/10/15 05:16:54;;;;;;;10.73;3.83;;;;;;;8.12;63.29;98860.44;4980440;28;20154;-79
2021/10/15 05:19:20;;;;;;;10.18;4.03;;;;;;;7.98;63.44;98852.91;4983456;28;20046;-79
2021/10/15 05:21:47;;;;;;;11.20;3.72;;;;;;;8.17;63.43;98887.66;4990183;28;20041;-79
2021/10/15 05:24:13;;;;;;;10.90;4.10;;;;;;;8.11;63.58;98866.97;5003151;28;20288;-79
2021/10/15 05:26:39;;;;;;;11.52;3.90;;;;;;;7.96;63.65;98857.81;5003025;28;20625;-82
2021/10/15 05:29:05;;;;;;;9.48;4.28;;;;;;;7.84;63.74;98855.41;5030281;28;20056;-83
2021/10/15 05:31:31;;;;;;;9.98;4.00;;;;;;;7.75;63.69;98846.22;5078394;28;20528;-84
2021/10/15 05:33:58;;;;;;;11.82;4.30;;;;;;;8.05;63.75;98885.28;5082691;28;20516;-84
2021/10/15 05:36:23;;;;;;;10.98;4.00;;;;;;;8.10;63.71;98887.94;5077417;28;20037;-85
2021/10/15 05:38:51;;;;;;;9.77;3.95;;;;;;;8.12;63.53;98887.66;5085123;28;20076;-83
2021/10/15 05:41:17;;;;;;;11.88;3.95;;;;;;;8.11;63.67;98894.19;5084738;28;20047;-84
2021/10/15 05:43:45;;;;;;;11.75;4.90;;;;;;;7.73;63.91;98832.88;5066942;28;20143;-83
2021/10/15 05:46:12;;;;;;;10.80;4.38;;;;;;;7.97;63.49;98845.00;5064942;28;20067;-81
2021/10/15 05:48:38;;;;;;;12.00;4.50;;;;;;;8.21;63.32;98891.44;5074914;28;20040;-84
2021/10/15 05:51:06;;;;;;;11.15;4.90;;;;;;;8.18;63.47;98897.44;5042046;28;20040;-82
2021/10/15 05:53:34;;;;;;;10.73;3.83;;;;;;;7.92;63.27;98856.72;5064899;28;20060;-80
2021/10/15 05:58:53;;;;;;;9.90;3.90;;;;;;;8.19;63.37;98902.59;5081783;28;20525;-79
2021/10/15 06:01:23;;;;;;;11.07;4.00;;;;;;;8.18;63.05;98908.34;5070306;28;20049;-79
2021/10/15 06:05:01;;;;;;;16.08;7.85;;;;;;;8.13;63.46;98911.88;5065320;28;20496;-79
2021/10/15 06:14:22;;;;;;;14.68;7.20;;;;;;;8.16;62.99;98913.25;5054305;28;20037;-78
2021/10/15 06:16:54;;;;;;;11.18;4.88;;;;;;;8.09;63.14;98927.97;5026227;28;20063;-80
2021/10/15 06:19:24;;;;;;;14.15;4.18;;;;;;;8.00;63.47;98932.38;5045678;28;20041;-82
2021/10/15 06:21:50;;;;;;;9.73;3.83;;;;;;;8.12;63.01;98929.31;5021143;28;20052;-79
2021/10/15 06:24:18;;;;;;;10.98;4.10;;;;;;;7.93;62.87;98891.84;5032362;28;20121;-82
2021/10/15 06:26:49;;;;;;;7.45;3.03;;;;;;;8.16;62.76;98932.31;5020645;28;20049;-81
2021/10/15 06:29:15;;;;;;;10.23;3.72;;;;;;;8.23;62.49;98924.63;5054343;28;20075;-73
2021/10/15 06:31:41;;;;;;;12.82;3.55;;;;;;;8.21;62.75;98940.44;5072391;28;20417;-73
2021/10/15 06:34:07;;;;;;;13.48;4.57;;;;;;;8.23;62.83;98957.31;5071707;28;20052;-73
2021/10/15 06:36:33;;;;;;;19.33;6.88;;;;;;;8.21;62.61;98938.56;5070121;28;20056;-73
2021/10/15 06:38:59;;;;;;;13.55;4.65;;;;;;;8.26;62.41;98939.63;5019441;28;20064;-74
2021/10/15 06:41:25;;;;;;;9.30;3.63;;;;;;;8.44;62.42;98938.16;5048170;28;20071;-74
2021/10/15 06:43:52;;;;;;;12.68;3.53;;;;;;;8.49;62.26;98955.25;5070791;28;20477;-74
2021/10/15 06:46:21;;;;;;;9.73;3.50;;;;;;;8.61;62.26;98968.59;5050678;28;20135;-72
2021/10/15 06:48:48;;;;;;;12.15;3.60;;;;;;;8.60;62.28;98969.69;5070336;28;20049;-73
2021/10/15 06:51:13;;;;;;;11.43;3.33;;;;;;;8.62;62.25;98966.66;5070544;28;20044;-74
2021/10/15 06:53:39;;;;;;;11.52;3.70;;;;;;;8.66;62.36;98973.19;5048339;28;20519;-74
2021/10/15 06:56:05;;;;;;;10.98;3.80;;;;;;;8.72;62.34;98980.25;5037104;28;20044;-74
2021/10/15 06:58:34;;;;;;;12.43;3.30;;;;;;;8.74;62.28;98985.38;5070492;28;20098;-77
2021/10/15 07:01:02;;;;;;;11.23;3.35;;;;;;;8.73;62.06;98979.13;5083094;28;20045;-80
2021/10/15 07:03:28;;;;;;;11.88;3.40;;;;;;;8.70;61.81;98981.59;5035613;28;20052;-80
2021/10/15 07:05:54;;;;;;;14.45;3.80;;;;;;;8.69;61.84;98988.16;5088907;28;20047;-81
2021/10/15 07:08:20;;;;;;;15.35;3.58;;;;;;;8.58;61.95;98971.84;5059344;28;20078;-81
2021/10/15 07:10:46;;;;;;;9.18;3.25;;;;;;;8.68;62.32;98989.25;5068389;28;20051;-81
2021/10/15 07:13:14;;;;;;;14.95;5.45;;;;;;;8.37;61.83;98935.75;5052999;28;20504;-81
2021/10/15 07:15:40;;;;;;;;;;;;;;;8.69;61.82;98988.16;5071716;28;20040;-83
2021/10/15 07:18:08;;;;;;;14.82;6.95;;;;;;;8.77;61.70;98993.81;5054905;28;20002;-80
2021/10/15 07:20:35;;;;;;;13.98;4.15;;;;;;;8.76;61.51;99002.31;5060379;28;20049;-82
2021/10/15 07:23:02;;;;;;;10.38;4.00;;;;;;;8.71;61.46;98996.88;5052236;28;20095;-82
2021/10/15 07:25:28;;;;;;;9.57;3.67;;;;;;;8.72;61.27;98998.50;5036841;28;20215;-82
2021/10/15 07:27:54;;;;;;;11.82;3.90;;;;;;;8.74;61.45;99009.91;5052711;28;20512;-81
2021/10/15 07:30:20;;;;;;;9.70;3.92;;;;;;;8.74;61.48;99018.94;5073364;28;20040;-81
2021/10/15 07:32:52;;;;;;;8.50;3.40;;;;;;;8.76;61.25;99019.47;5070527;28;20507;-80
2021/10/15 07:35:20;;;;;;;9.38;3.72;;;;;;;8.69;60.97;99007.25;5036209;28;20094;-86
2021/10/15 07:37:46;;;;;;;;;;;;;;;8.79;60.65;99007.97;5070803;28;20481;-78
2021/10/15 07:40:12;;;;;;;10.90;3.63;;;;;;;8.87;60.76;99012.03;5032286;28;19924;-77
2021/10/15 07:42:38;;;;;;;17.92;3.83;;;;;;;8.77;60.69;99003.94;5039055;28;20046;-76
2021/10/15 07:45:05;;;;;;;10.63;3.60;;;;;;;8.74;60.12;99005.28;5070969;28;20079;-79
2021/10/15 07:47:32;;;;;;;9.60;3.42;;;;;;;8.74;59.96;98996.28;5072731;28;20110;-77
2021/10/15 07:49:58;;;;;;;9.93;3.90;;;;;;;8.97;60.17;99026.69;5049930;28;20509;-77
2021/10/15 07:52:26;;;;;;;8.90;3.13;;;;;;;9.17;59.50;99042.91;5035124;28;20106;-77
2021/10/15 07:54:52;;;;;;;12.73;3.50;;;;;;;9.23;59.28;99049.13;5028174;28;20049;-76
2021/10/15 07:57:17;;;;;;;11.85;3.35;;;;;;;9.26;59.10;99039.59;5052872;28;20776;-76
2021/10/15 07:59:44;;;;;;;10.63;3.15;;;;;;;9.26;59.15;99045.03;5052694;28;20052;-77
2021/10/15 08:02:10;;;;;;;8.77;3.10;;;;;;;9.18;59.24;99036.34;5052547;28;20075;-78
2021/10/15 08:04:36;;;;;;;13.07;3.55;;;;;;;9.36;59.19;99047.66;5035642;28;20044;-78
2021/10/15 08:07:03;;;;;;;11.10;3.53;;;;;;;9.41;59.29;99044.91;5070283;28;20057;-79
2021/10/15 08:09:31;;;;;;;10.98;3.97;;;;;;;9.46;59.41;99044.06;5075453;28;20060;-80
2021/10/15 08:11:57;;;;;;;14.48;3.03;;;;;;;9.44;59.02;99051.69;5064665;28;20090;-76
2021/10/15 08:14:24;;;;;;;9.27;2.80;;;;;;;9.41;58.76;99055.00;5054924;28;20498;-79
2021/10/15 08:16:51;;;;;;;12.68;3.22;;;;;;;9.41;58.56;99053.09;5056297;28;20049;-78
2021/10/15 08:19:17;;;;;;;17.33;3.28;;;;;;;9.40;57.76;99065.13;5077745;28;20051;-79
2021/10/15 08:21:43;;;;;;;11.10;2.88;;;;;;;9.46;57.29;99060.44;5053377;28;20428;-79
2021/10/15 08:24:10;;;;;;;16.45;3.00;;;;;;;9.59;57.30;99062.50;5071682;28;20053;-81
2021/10/15 08:26:38;;;;;;;11.32;3.08;;;;;;;9.67;56.96;99068.44;5056266;28;20095;-81
2021/10/15 08:29:04;;;;;;;12.40;3.10;;;;;;;9.68;57.44;99070.91;5040421;28;20036;-81
2021/10/15 08:31:30;;;;;;;10.05;2.50;;;;;;;9.77;57.52;99080.09;5051000;28;20135;-81
2021/10/15 08:33:56;;;;;;;16.02;2.80;;;;;;;9.88;56.89;99075.34;5047372;28;20520;-80
2021/10/15 08:36:22;;;;;;;11.25;2.88;;;;;;;9.86;57.21;99083.00;5040257;28;20371;-80
2021/10/15 08:38:55;;;;;;;8.60;2.53;;;;;;;9.84;57.31;99096.13;5060748;28;20102;-78
2021/10/15 08:41:25;;;;;;;7.63;2.50;;;;;;;9.71;57.47;99091.34;5076021;28;20090;-79
2021/10/15 08:43:54;;;;;;;10.10;2.65;;;;;;;9.67;57.23;99076.63;5056425;28;20353;-78
2021/10/15 08:46:21;;;;;;;10.75;2.40;;;;;;;9.61;56.77;99093.06;5055681;28;20530;-78
2021/10/15 08:48:48;;;;;;;8.50;2.20;;;;;;;9.60;56.41;99094.16;5073399;28;20076;-76
2021/10/15 08:51:15;;;;;;;6.18;1.83;;;;;;;9.41;56.54;99094.03;5072753;28;20042;-77
2021/10/15 08:53:45;;;;;;;7.70;2.00;;;;;;;9.39;56.24;99087.22;5066973;28;20052;-76
2021/10/15 08:56:11;;;;;;;5.50;2.08;;;;;;;9.39;56.43;99100.88;5073338;28;20049;-77
2021/10/15 08:58:41;;;;;;;8.00;2.40;;;;;;;9.37;55.98;99079.34;5056708;28;20056;-78
2021/10/15 09:01:09;;;;;;;7.35;2.50;;;;;;;9.40;56.60;99097.03;5049969;28;20049;-77
2021/10/15 09:03:35;;;;;;;7.18;2.40;;;;;;;9.43;56.49;99108.19;5089434;28;20051;-79
2021/10/15 09:06:03;;;;;;;10.15;2.30;;;;;;;9.32;56.25;99090.28;5071405;28;20051;-77
2021/10/15 09:08:48;;;;;;;7.28;2.20;;;;;;;9.41;56.58;99123.22;5056401;28;20071;-78
2021/10/15 09:11:31;;;;;;;7.82;1.98;;;;;;;9.26;56.56;99113.22;5039451;28;20049;-79
2021/10/15 09:14:13;;;;;;;13.90;2.60;;;;;;;9.18;56.38;99103.75;5055487;28;20049;-77
2021/10/15 09:17:02;;;;;;;11.10;3.20;;;;;;;8.92;57.04;99115.59;5073931;28;20542;-80
2021/10/15 09:19:31;;;;;;;7.00;2.60;;;;;;;8.67;57.61;99099.38;5039172;28;20052;-81
2021/10/15 09:22:06;;;;;;;4.97;1.88;;;;;;;8.61;57.95;99104.03;5056419;28;20051;-78
2021/10/15 09:24:37;;;;;;;8.02;2.10;;;;;;;8.83;57.86;99117.28;5053217;28;20390;-81
2021/10/15 09:27:22;;;;;;;6.45;2.17;;;;;;;8.94;57.73;99118.88;5071910;28;20074;-79
2021/10/15 09:29:50;;;;;;;5.53;2.13;;;;;;;8.81;58.00;99122.19;5025689;28;20040;-80
2021/10/15 09:32:18;;;;;;;7.50;2.30;;;;;;;8.63;58.10;99129.91;5073195;28;20063;-78
2021/10/15 09:34:45;;;;;;;9.45;2.00;;;;;;;8.29;59.22;99126.97;5073256;28;20122;-78
2021/10/15 09:37:18;;;;;;;7.47;2.08;;;;;;;8.37;58.99;99129.16;5074791;28;20071;-78
2021/10/15 09:39:44;;;;;;;5.18;2.05;;;;;;;8.38;59.63;99137.03;5076808;28;20118;-82
2021/10/15 09:42:30;;;;;;;8.57;2.42;;;;;;;8.32;60.48;99137.31;5057655;28;20053;-80
2021/10/15 09:45:12;;;;;;;10.65;2.65;;;;;;;8.30;60.15;99142.22;5078228;28;20048;-81
2021/10/15 09:47:49;;;;;;;10.68;2.40;;;;;;;8.54;59.96;99128.84;5078606;28;20040;-76
2021/10/15 09:50:18;;;;;;;6.15;2.15;;;;;;;8.48;60.27;99132.66;5081300;28;20081;-75
2021/10/15 09:52:46;;;;;;;6.90;2.30;;;;;;;8.37;60.57;99138.13;5073301;28;20044;-74
2021/10/15 09:55:16;;;;;;;;;;;;;;;8.19;61.33;99155.84;5078789;28;20044;-75
2021/10/15 09:57:44;;;;;;;6.07;2.20;;;;;;;8.32;60.90;99124.53;5042232;28;19967;-75
2021/10/15 10:00:13;;;;;;;6.88;2.30;;;;;;;8.33;61.08;99134.31;5067954;28;20048;-75
2021/10/15 10:02:39;;;;;;;6.72;2.42;;;;;;;8.23;61.34;99142.50;5059490;28;20467;-76
2021/10/15 10:05:13;;;;;;;7.18;2.60;;;;;;;7.96;62.56;99143.66;5072880;28;20048;-75
2021/10/15 10:07:39;;;;;;;8.00;2.70;;;;;;;8.11;62.45;99156.41;5033483;28;20394;-75
2021/10/15 10:10:18;;;;;;;7.30;2.73;;;;;;;8.00;62.91;99157.50;5057839;28;20299;-86
2021/10/15 10:24:56;;;;;;;;;;;;;;;;;;;;;
2021/10/15 10:36:55;;;;;;;5.95;2.20;;;;;;;8.19;59.86;99044.19;4856187;29;20053;-81
2021/10/15 10:50:40;;;;;;;8.57;2.25;;;;;;;9.65;58.30;99143.25;4985800;28;20196;-84
2021/10/15 11:01:39;;;;;;;;;;;;;;;;;;;;;
2021/10/15 11:08:32;;;;;;;9.52;2.40;;;;;;;10.50;54.57;99151.22;4813786;29;20373;-84
2021/10/15 11:36:16;;;;;;;6.10;2.13;;;;;;;9.09;52.07;99046.25;4985252;28;20108;-87
2021/10/15 11:39:08;;;;;;;8.30;2.30;;;;;;;9.42;52.05;99105.75;4977370;28;20069;-80
2021/10/15 11:41:48;;;;;;;7.25;2.53;;;;;;;9.58;51.38;99175.50;4978860;28;20054;-82
2021/10/15 11:44:14;;;;;;;;;;;;;;;9.29;49.39;99167.22;4929646;28;20057;-80
2021/10/15 11:46:43;;;;;;;11.38;2.58;;;;;;;9.06;49.33;99120.44;4953343;28;19929;-82
2021/10/15 11:49:09;;;;;;;8.18;2.10;;;;;;;8.60;49.75;99059.63;4979558;28;20053;-81
2021/10/15 11:51:39;;;;;;;7.25;2.10;;;;;;;9.22;50.10;99154.72;4946876;28;20585;-82
2021/10/15 11:58:21;;;;;;;10.35;2.00;;;;;;;9.51;49.48;99159.44;4880130;29;20075;-85
2021/10/15 12:01:21;;;;;;;5.78;1.98;;;;;;;9.15;49.03;99132.38;4889473;29;20088;-81
2021/10/15 12:03:54;;;;;;;10.43;2.03;;;;;;;9.30;49.59;99144.31;4865797;29;20075;-81
2021/10/15 12:06:27;;;;;;;8.88;2.60;;;;;;;9.37;49.12;99161.19;4879284;28;20143;-80
2021/10/15 12:09:16;;;;;;;5.75;2.08;;;;;;;9.37;48.68;99147.53;4954451;28;20047;-81
2021/10/15 12:11:52;;;;;;;8.05;2.42;;;;;;;8.92;48.49;99062.97;4938905;28;20545;-86
2021/10/15 12:14:23;;;;;;;8.95;2.30;;;;;;;10.08;46.75;99109.81;4943023;28;20055;-82
2021/10/15 12:16:56;;;;;;;7.07;2.15;;;;;;;11.19;44.58;99154.78;4943794;28;20050;-84
2021/10/15 12:19:25;;;;;;;9.88;2.60;;;;;;;11.02;44.99;99166.22;4970234;28;20058;-79
2021/10/15 12:22:00;;;;;;;8.18;2.05;;;;;;;10.84;45.68;99154.13;4958124;28;20164;-82
2021/10/15 12:24:30;;;;;;;5.30;1.83;;;;;;;10.62;45.39;99139.91;4989886;28;20058;-77
2021/10/15 12:27:05;;;;;;;9.35;2.00;;;;;;;10.29;45.21;99183.38;4988697;28;20146;-78
2021/10/15 12:29:35;;;;;;;9.13;2.10;;;;;;;10.74;45.42;99164.09;4989570;28;20136;-78
2021/10/15 12:32:18;;;;;;;13.02;2.53;;;;;;;11.48;44.19;99162.06;4944675;28;20508;-82
2021/10/15 12:35:07;;;;;;;7.45;1.90;;;;;;;11.39;43.60;99175.56;4969232;28;20345;-80
2021/10/15 12:37:37;;;;;;;7.80;2.00;;;;;;;11.30;44.65;99164.47;4971799;28;20430;-79
2021/10/15 12:40:11;;;;;;;11.50;2.20;;;;;;;11.09;44.54;99176.81;4960152;28;20074;-83
2021/10/15 12:42:37;;;;;;;14.23;2.20;;;;;;;10.68;45.50;99151.56;4983023;28;20507;-82
2021/10/15 12:45:04;;;;;;;12.80;2.28;;;;;;;10.46;45.99;99163.84;4986987;28;20109;-78
2021/10/15 12:47:30;;;;;;;7.90;2.30;;;;;;;10.40;46.72;99184.13;4990532;28;20085;-78
2021/10/15 12:49:58;;;;;;;6.30;2.00;;;;;;;10.29;47.29;99166.97;4983993;28;20468;-78
2021/10/15 12:52:30;;;;;;;8.13;1.90;;;;;;;10.11;47.58;99195.84;4955140;28;20110;-78
2021/10/15 12:54:56;;;;;;;6.35;2.30;;;;;;;9.62;48.76;99178.47;4976190;28;20081;-77
2021/10/15 12:57:34;;;;;;;18.33;2.60;;;;;;;9.75;48.71;99163.34;4984666;28;20046;-77
2021/10/15 13:00:03;;;;;;;12.27;2.63;;;;;;;10.10;48.19;99163.34;4989917;28;20104;-77
2021/10/15 13:02:30;;;;;;;9.88;2.10;;;;;;;10.26;47.94;99175.75;4975719;28;20253;-78
2021/10/15 13:05:00;;;;;;;14.85;2.58;;;;;;;10.33;48.11;99164.50;4959535;28;20149;-77
2021/10/15 13:07:27;;;;;;;6.95;2.00;;;;;;;10.00;48.07;99202.50;4959395;28;20470;-76
2021/10/15 13:09:53;;;;;;;7.15;2.13;;;;;;;9.42;48.32;99187.59;4994167;28;20054;-77
2021/10/15 13:12:19;;;;;;;6.20;2.00;;;;;;;9.55;48.50;99191.63;4975067;28;20545;-78
2021/10/15 13:14:46;;;;;;;9.93;2.00;;;;;;;9.38;48.70;99173.72;4994011;28;20073;-76
2021/10/15 13:17:13;;;;;;;6.32;1.73;;;;;;;9.39;49.10;99178.09;4999025;28;20050;-78
2021/10/15 13:19:40;;;;;;;6.95;2.00;;;;;;;9.33;49.24;99171.00;4967057;28;20105;-81
2021/10/15 13:22:06;;;;;;;6.88;2.00;;;;;;;9.26;49.71;99174.03;4974068;28;20055;-79
2021/10/15 13:24:35;;;;;;;8.88;1.90;;;;;;;9.42;49.50;99172.06;4991313;28;20089;-80
2021/10/15 13:27:08;;;;;;;11.45;2.17;;;;;;;9.38;49.68;99171.00;4991328;28;20046;-81
2021/10/15 13:29:44;;;;;;;10.88;2.28;;;;;;;8.71;49.60;99075.91;4978196;28;20769;-81
2021/10/15 13:32:19;;;;;;;7.90;2.10;;;;;;;8.79;49.72;99094.41;4973383;28;20098;-80
2021/10/15 13:34:47;;;;;;;7.05;2.13;;;;;;;9.22;50.02;99176.53;4968101;28;20063;-81
2021/10/15 13:37:18;;;;;;;11.27;2.10;;;;;;;9.04;50.17;99133.53;4971454;28;20046;-81
2021/10/15 13:39:47;;;;;;;8.00;2.17;;;;;;;9.14;50.57;99171.66;4990534;28;20162;-80
2021/10/15 13:50:44;;;;;;;10.25;2.03;;;;;;;8.97;51.13;99161.09;4981266;28;20101;-78
2021/10/15 13:53:10;;;;;;;8.47;2.20;;;;;;;8.91;51.65;99167.69;4993020;28;20148;-79
2021/10/15 13:55:46;;;;;;;6.47;2.08;;;;;;;9.01;51.25;99177.72;4992747;28;20057;-81
2021/10/15 13:58:23;;;;;;;6.65;2.40;;;;;;;9.05;51.25;99170.59;4958614;28;20061;-79
2021/10/15 14:00:50;;;;;;;8.60;2.42;;;;;;;8.84;51.59;99159.81;4976225;28;20137;-77
2021/10/15 14:05:59;;;;;;;7.82;2.35;;;;;;;8.76;51.69;99171.28;4976097;28;20515;-77
2021/10/15 14:08:25;;;;;;;6.90;2.30;;;;;;;8.71;52.21;99174.03;4976084;28;20074;-79
2021/10/15 14:10:51;;;;;;;6.63;2.25;;;;;;;8.78;52.08;99169.09;4991932;28;20112;-78
2021/10/15 14:13:18;;;;;;;11.63;2.38;;;;;;;8.73;52.05;99159.03;4946373;28;20082;-77
2021/10/15 14:15:44;;;;;;;8.40;2.00;;;;;;;8.57;51.84;99150.06;4947355;28;20050;-77
2021/10/15 14:18:10;;;;;;;7.50;2.42;;;;;;;8.76;51.77;99179.47;4961035;28;20051;-77
2021/10/15 14:20:38;;;;;;;8.85;2.20;;;;;;;8.80;51.84;99169.63;4974928;28;20137;-77
2021/10/15 14:23:06;;;;;;;5.80;2.13;;;;;;;8.79;51.93;99181.63;4963558;28;20057;-78
2021/10/15 14:25:32;;;;;;;7.78;2.30;;;;;;;8.71;51.77;99163.94;4974572;28;20546;-77
2021/10/15 14:27:58;;;;;;;8.38;2.50;;;;;;;8.67;52.00;99173.78;4958501;28;20050;-78
2021/10/15 14:30:25;;;;;;;14.95;2.83;;;;;;;8.74;51.90;99165.28;4990018;28;20058;-77
2021/10/15 14:32:52;;;;;;;10.48;2.97;;;;;;;8.54;52.08;99138.94;4979464;28;20086;-77